createdAt,value
2022-12-22T00:00:49.191Z,-0.26
2022-12-22T00:03:16.364Z,-0.29
2022-12-22T00:05:43.223Z,-0.30
2022-12-22T00:08:10.909Z,-0.31
2022-12-22T00:10:37.707Z,-0.33
2022-12-22T00:13:05.338Z,-0.32
2022-12-22T00:15:35.366Z,-0.30
2022-12-22T00:18:02.762Z,-0.34
2022-12-22T00:20:29.532Z,-0.34
2022-12-22T00:22:56.429Z,-0.34
2022-12-22T00:25:23.217Z,-0.39
2022-12-22T00:27:49.985Z,-0.38
2022-12-22T00:30:17.988Z,-0.38
2022-12-22T00:32:45.744Z,-0.42
2022-12-22T00:35:14.356Z,-0.45
2022-12-22T00:37:41.187Z,-0.45
2022-12-22T00:40:20.550Z,-0.45
2022-12-22T00:42:47.429Z,-0.44
2022-12-22T00:45:14.288Z,-0.43
2022-12-22T00:47:42.510Z,-0.40
2022-12-22T00:50:10.181Z,-0.48
2022-12-22T00:52:37.190Z,-0.45
2022-12-22T00:55:13.642Z,-0.47
2022-12-22T00:57:42.980Z,-0.49
2022-12-22T01:00:15.659Z,-0.47
2022-12-22T01:02:42.592Z,-0.50
2022-12-22T01:05:09.894Z,-0.51
2022-12-22T01:07:36.872Z,-0.49
2022-12-22T01:10:04.443Z,-0.47
2022-12-22T01:12:32.975Z,-0.44
2022-12-22T01:15:01.363Z,-0.45
2022-12-22T01:17:28.322Z,-0.46
2022-12-22T01:19:55.120Z,-0.49
2022-12-22T01:22:22.128Z,-0.50
2022-12-22T01:24:48.913Z,-0.50
2022-12-22T01:27:16.714Z,-0.48
2022-12-22T01:29:44.284Z,-0.53
2022-12-22T01:32:15.114Z,-0.57
2022-12-22T01:34:42.672Z,-0.54
2022-12-22T01:37:09.480Z,-0.58
2022-12-22T01:39:36.424Z,-0.62
2022-12-22T01:42:03.393Z,-0.59
2022-12-22T01:44:30.292Z,-0.58
2022-12-22T01:47:32.003Z,-0.56
2022-12-22T01:49:58.846Z,-0.66
2022-12-22T01:52:32.468Z,-0.62
2022-12-22T01:55:03.084Z,-0.64
2022-12-22T01:57:31.125Z,-0.62
2022-12-22T01:59:58.437Z,-0.61
2022-12-22T02:02:28.053Z,-0.57
2022-12-22T02:04:59.502Z,-0.59
2022-12-22T02:07:49.756Z,-0.58
2022-12-22T02:10:53.856Z,-0.57
2022-12-22T02:13:57.653Z,-0.55
2022-12-22T02:16:49.065Z,-0.56
2022-12-22T02:19:50.558Z,-0.55
2022-12-22T02:22:32.389Z,-0.55
2022-12-22T02:25:05.628Z,-0.56
2022-12-22T02:27:37.569Z,-0.55
2022-12-22T02:30:07.688Z,-0.56
2022-12-22T02:32:37.685Z,-0.55
2022-12-22T02:35:16.490Z,-0.52
2022-12-22T02:38:23.298Z,-0.55
2022-12-22T02:41:14.918Z,-0.56
2022-12-22T02:43:48.328Z,-0.54
2022-12-22T02:46:24.127Z,-0.58
2022-12-22T02:48:57.357Z,-0.58
2022-12-22T02:51:28.396Z,-0.58
2022-12-22T02:53:56.921Z,-0.59
2022-12-22T02:56:24.267Z,-0.58
2022-12-22T02:58:51.743Z,-0.61
2022-12-22T03:01:19.775Z,-0.59
2022-12-22T03:03:47.245Z,-0.58
2022-12-22T03:06:13.984Z,-0.56
2022-12-22T03:08:40.825Z,-0.54
2022-12-22T03:11:07.631Z,-0.57
2022-12-22T03:13:34.531Z,-0.57
2022-12-22T03:16:01.380Z,-0.58
2022-12-22T03:18:28.240Z,-0.57
2022-12-22T03:20:55.925Z,-0.55
2022-12-22T03:23:22.792Z,-0.57
2022-12-22T03:25:49.588Z,-0.54
2022-12-22T03:28:16.447Z,-0.57
2022-12-22T03:30:43.238Z,-0.53
2022-12-22T03:33:10.173Z,-0.58
2022-12-22T03:35:36.938Z,-0.53
2022-12-22T03:38:03.884Z,-0.56
2022-12-22T03:40:31.912Z,-0.52
2022-12-22T03:42:58.963Z,-0.52
2022-12-22T03:45:25.842Z,-0.54
2022-12-22T03:47:52.738Z,-0.55
2022-12-22T03:50:19.501Z,-0.65
2022-12-22T03:52:46.458Z,-0.63
2022-12-22T03:55:13.316Z,-0.65
2022-12-22T03:57:40.091Z,-0.63
2022-12-22T04:00:07.773Z,-0.64
2022-12-22T04:02:38.792Z,-0.66
2022-12-22T04:05:06.063Z,-0.64
2022-12-22T04:07:33.001Z,-0.62
2022-12-22T04:09:59.881Z,-0.64
2022-12-22T04:12:26.693Z,-0.64
2022-12-22T04:14:53.497Z,-0.63
2022-12-22T04:17:20.374Z,-0.67
2022-12-22T04:19:47.124Z,-0.62
2022-12-22T04:22:13.949Z,-0.69
2022-12-22T04:24:40.823Z,-0.68
2022-12-22T04:27:07.663Z,-0.65
2022-12-22T04:29:34.690Z,-0.69
2022-12-22T04:32:01.816Z,-0.73
2022-12-22T04:34:28.754Z,-0.78
2022-12-22T04:37:02.346Z,-0.78
2022-12-22T04:39:34.067Z,-0.76
2022-12-22T04:42:00.948Z,-0.75
2022-12-22T04:44:27.745Z,-0.79
2022-12-22T04:46:54.759Z,-0.77
2022-12-22T04:49:21.572Z,-0.76
2022-12-22T04:51:48.398Z,-0.78
2022-12-22T04:54:15.395Z,-0.75
2022-12-22T04:56:42.326Z,-0.72
2022-12-22T04:59:09.083Z,-0.74
2022-12-22T05:01:36.205Z,-0.73
2022-12-22T05:04:03.274Z,-0.70
2022-12-22T05:06:31.132Z,-0.72
2022-12-22T05:08:57.925Z,-0.69
2022-12-22T05:11:24.851Z,-0.69
2022-12-22T05:13:51.633Z,-0.68
2022-12-22T05:16:18.630Z,-0.71
2022-12-22T05:18:46.117Z,-0.75
2022-12-22T05:21:15.748Z,-0.74
2022-12-22T05:23:43.281Z,-0.77
2022-12-22T05:26:10.910Z,-0.78
2022-12-22T05:28:37.742Z,-0.85
2022-12-22T05:31:11.055Z,-0.84
2022-12-22T05:33:38.196Z,-0.82
2022-12-22T05:36:05.245Z,-0.85
2022-12-22T05:38:32.207Z,-0.81
2022-12-22T05:41:04.042Z,-0.81
2022-12-22T05:43:32.780Z,-0.80
2022-12-22T05:46:08.665Z,-0.78
2022-12-22T05:48:39.098Z,-0.78
2022-12-22T05:51:08.539Z,-0.78
2022-12-22T05:53:35.606Z,-0.83
2022-12-22T05:56:02.549Z,-0.79
2022-12-22T05:58:29.415Z,-0.81
2022-12-22T06:00:58.560Z,-0.78
2022-12-22T06:03:26.846Z,-0.80
2022-12-22T06:05:54.381Z,-0.81
2022-12-22T06:08:21.727Z,-0.82
2022-12-22T06:10:48.668Z,-0.81
2022-12-22T06:13:15.645Z,-0.81
2022-12-22T06:15:42.761Z,-0.84
2022-12-22T06:18:09.549Z,-0.82
2022-12-22T06:20:36.465Z,-0.85
2022-12-22T06:23:03.354Z,-0.85
2022-12-22T06:25:30.265Z,-0.86
2022-12-22T06:27:57.085Z,-0.88
2022-12-22T06:30:31.000Z,-0.90
2022-12-22T06:33:00.810Z,-0.92
2022-12-22T06:35:27.901Z,-0.90
2022-12-22T06:37:54.730Z,-0.93
2022-12-22T06:40:21.807Z,-0.92
2022-12-22T06:42:48.599Z,-0.94
2022-12-22T06:45:15.516Z,-0.94
2022-12-22T06:47:42.384Z,-0.93
2022-12-22T06:50:09.571Z,-0.96
2022-12-22T06:52:36.744Z,-0.92
2022-12-22T06:55:03.953Z,-0.93
2022-12-22T06:57:30.751Z,-0.92
2022-12-22T06:59:58.115Z,-0.99
2022-12-22T07:02:25.634Z,-1.00
2022-12-22T07:04:53.082Z,-1.01
2022-12-22T07:07:19.853Z,-0.98
2022-12-22T07:09:46.689Z,-0.99
2022-12-22T07:12:13.869Z,-0.97
2022-12-22T07:14:40.831Z,-0.99
2022-12-22T07:17:08.241Z,-0.99
2022-12-22T07:19:35.282Z,-1.00
2022-12-22T07:22:02.046Z,-0.97
2022-12-22T07:24:28.945Z,-0.96
2022-12-22T07:26:55.811Z,-0.99
2022-12-22T07:29:22.785Z,-0.99
2022-12-22T07:31:49.782Z,-0.98
2022-12-22T07:34:16.905Z,-0.95
2022-12-22T07:36:43.786Z,-0.96
2022-12-22T07:39:12.864Z,-0.94
2022-12-22T07:41:39.856Z,-0.95
2022-12-22T07:44:07.651Z,-0.93
2022-12-22T07:46:37.455Z,-0.95
2022-12-22T07:49:06.083Z,-0.91
2022-12-22T07:51:36.814Z,-0.89
2022-12-22T07:54:08.026Z,-0.88
2022-12-22T07:56:35.505Z,-0.87
2022-12-22T07:59:02.795Z,-0.86
2022-12-22T08:01:29.856Z,-0.88
2022-12-22T08:03:56.839Z,-0.89
2022-12-22T08:06:24.297Z,-0.85
2022-12-22T08:08:51.867Z,-0.86
2022-12-22T08:11:19.049Z,-0.84
2022-12-22T08:13:46.189Z,-0.83
2022-12-22T08:16:14.383Z,-0.82
2022-12-22T08:18:41.894Z,-0.80
2022-12-22T08:21:09.415Z,-0.80
2022-12-22T08:23:36.341Z,-0.82
2022-12-22T08:26:14.161Z,-0.78
2022-12-22T08:28:58.888Z,-0.77
2022-12-22T08:31:29.073Z,-0.78
2022-12-22T08:33:59.674Z,-0.77
2022-12-22T08:36:27.133Z,-0.75
2022-12-22T08:38:55.528Z,-0.74
2022-12-22T08:41:22.461Z,-0.70
2022-12-22T08:43:49.234Z,-0.72
2022-12-22T08:46:16.125Z,-0.70
2022-12-22T08:48:43.001Z,-0.71
2022-12-22T08:51:09.808Z,-0.70
2022-12-22T08:54:03.934Z,-0.70
2022-12-22T08:56:23.541Z,-0.69
2022-12-22T08:58:50.408Z,-0.68
2022-12-22T09:01:22.317Z,-0.66
2022-12-22T09:03:53.237Z,-0.66
2022-12-22T09:06:27.027Z,-0.64
2022-12-22T09:08:56.919Z,-0.62
2022-12-22T09:11:24.705Z,-0.60
2022-12-22T09:13:53.621Z,-0.59
2022-12-22T09:16:21.432Z,-0.59
2022-12-22T09:18:48.721Z,-0.57
2022-12-22T09:21:16.002Z,-0.56
2022-12-22T09:23:43.132Z,-0.56
2022-12-22T09:26:12.647Z,-0.54
2022-12-22T09:28:43.723Z,-0.53
2022-12-22T09:31:15.235Z,-0.51
2022-12-22T09:33:42.095Z,-0.49
2022-12-22T09:36:12.591Z,-0.49
2022-12-22T09:38:40.615Z,-0.45
2022-12-22T09:41:33.615Z,-0.43
2022-12-22T09:44:13.659Z,-0.42
2022-12-22T09:46:40.823Z,-0.43
2022-12-22T09:49:08.422Z,-0.41
2022-12-22T09:51:42.595Z,-0.39
2022-12-22T09:54:12.545Z,-0.39
2022-12-22T09:56:40.026Z,-0.38
2022-12-22T09:59:12.925Z,-0.36
2022-12-22T10:01:48.373Z,-0.34
2022-12-22T10:04:27.030Z,-0.31
2022-12-22T10:07:12.658Z,-0.31
2022-12-22T10:09:50.171Z,-0.30
2022-12-22T10:12:21.633Z,-0.28
2022-12-22T10:14:50.375Z,-0.29
2022-12-22T10:17:25.504Z,-0.29
2022-12-22T10:19:55.132Z,-0.27
2022-12-22T10:22:25.028Z,-0.24
2022-12-22T10:24:52.261Z,-0.22
2022-12-22T10:27:27.473Z,-0.22
2022-12-22T10:30:19.425Z,-0.24
2022-12-22T10:33:02.575Z,-0.22
2022-12-22T10:35:50.100Z,-0.22
2022-12-22T10:38:31.613Z,-0.19
2022-12-22T10:41:04.288Z,-0.19
2022-12-22T10:43:45.954Z,-0.20
2022-12-22T10:46:13.011Z,-0.17
2022-12-22T10:48:40.461Z,-0.15
2022-12-22T10:51:10.246Z,-0.16
2022-12-22T10:53:45.566Z,-0.14
2022-12-22T10:56:25.946Z,-0.14
2022-12-22T10:58:54.260Z,-0.12
2022-12-22T11:01:27.572Z,-0.11
2022-12-22T11:03:54.654Z,-0.13
2022-12-22T11:06:21.910Z,-0.11
2022-12-22T11:08:51.624Z,-0.11
2022-12-22T11:11:46.287Z,-0.08
2022-12-22T11:14:26.811Z,-0.07
2022-12-22T11:17:05.929Z,-0.07
2022-12-22T11:19:45.051Z,-0.05
2022-12-22T11:22:28.615Z,-0.04
2022-12-22T11:25:18.924Z,-0.02
2022-12-22T11:27:51.933Z,0.01
2022-12-22T11:30:21.830Z,-0.01
2022-12-22T11:33:16.643Z,0.01
2022-12-22T11:36:02.274Z,0.01
2022-12-22T11:38:54.113Z,0.10
2022-12-22T11:41:50.068Z,0.12
2022-12-22T11:44:54.009Z,0.15
2022-12-22T11:47:38.864Z,0.15
2022-12-22T11:50:59.524Z,0.13
2022-12-22T11:54:08.665Z,0.13
2022-12-22T11:57:13.275Z,0.14
2022-12-22T12:00:00.938Z,0.14
2022-12-22T12:02:49.423Z,0.17
2022-12-22T12:05:34.544Z,0.19
2022-12-22T12:08:29.567Z,0.17
2022-12-22T12:11:35.853Z,0.18
2022-12-22T12:14:11.642Z,0.21
2022-12-22T12:16:46.865Z,0.22
2022-12-22T12:19:47.395Z,0.21
2022-12-22T12:22:29.172Z,0.22
2022-12-22T12:25:19.859Z,0.23
2022-12-22T12:28:17.095Z,0.22
2022-12-22T12:30:58.405Z,0.28
2022-12-22T12:33:38.749Z,0.29
2022-12-22T12:36:17.400Z,0.30
2022-12-22T12:42:32.047Z,0.35
2022-12-22T12:44:59.161Z,0.36
2022-12-22T12:47:36.123Z,0.36
2022-12-22T12:50:34.816Z,0.41
2022-12-22T12:53:21.768Z,0.40
2022-12-22T12:55:52.758Z,0.42
2022-12-22T12:58:37.941Z,0.44
2022-12-22T13:01:27.276Z,0.45
2022-12-22T13:04:03.056Z,0.51
2022-12-22T13:06:52.987Z,0.57
2022-12-22T13:12:48.777Z,0.61
2022-12-22T13:15:37.436Z,0.64
2022-12-22T13:18:23.662Z,0.67
2022-12-22T13:21:18.729Z,0.69
2022-12-22T13:26:45.867Z,0.64
2022-12-22T13:29:19.507Z,0.64
2022-12-22T13:31:49.243Z,0.66
2022-12-22T13:35:20.105Z,0.67
2022-12-22T13:37:31.013Z,0.70
2022-12-22T13:40:16.376Z,0.75
2022-12-22T13:43:00.000Z,0.78
2022-12-22T13:45:33.012Z,0.78
2022-12-22T13:48:04.930Z,0.81
2022-12-22T13:50:37.090Z,0.80
2022-12-22T13:53:08.360Z,0.79
2022-12-22T13:55:35.323Z,0.80
2022-12-22T13:58:14.062Z,0.79
2022-12-22T14:00:41.058Z,0.80
2022-12-22T14:03:41.753Z,0.80
2022-12-22T14:06:31.205Z,0.80
2022-12-22T14:09:27.258Z,0.80
2022-12-22T14:12:06.524Z,0.80
2022-12-22T14:14:42.780Z,0.81
2022-12-22T14:17:29.297Z,0.85
2022-12-22T14:19:59.485Z,0.83
2022-12-22T14:22:31.165Z,0.74
2022-12-22T14:25:03.861Z,0.68
2022-12-22T14:27:38.338Z,0.70
2022-12-22T14:30:16.390Z,0.70
2022-12-22T14:32:52.439Z,0.72
2022-12-22T14:35:21.339Z,0.65
2022-12-22T14:37:54.749Z,0.64
2022-12-22T14:40:42.452Z,0.71
2022-12-22T14:43:31.419Z,0.71
2022-12-22T14:46:07.490Z,0.70
2022-12-22T14:48:39.748Z,0.68
2022-12-22T14:51:07.454Z,0.69
2022-12-22T14:53:43.028Z,0.72
2022-12-22T14:56:15.135Z,0.75
2022-12-22T14:58:44.573Z,0.75
2022-12-22T15:01:24.460Z,0.78
2022-12-22T15:04:10.038Z,0.81
2022-12-22T15:06:42.029Z,0.80
2022-12-22T15:09:15.786Z,0.80
2022-12-22T15:11:48.174Z,0.82
2022-12-22T15:14:20.622Z,0.82
2022-12-22T15:16:47.983Z,0.84
2022-12-22T15:19:17.459Z,0.84
2022-12-22T15:21:44.696Z,0.83
2022-12-22T15:24:12.776Z,0.80
2022-12-22T15:26:39.578Z,0.81
2022-12-22T15:29:06.360Z,0.80
2022-12-22T15:31:33.772Z,0.79
2022-12-22T15:34:03.740Z,0.83
2022-12-22T15:36:30.587Z,0.82
2022-12-22T15:38:57.375Z,0.81
2022-12-22T15:41:24.177Z,0.77
2022-12-22T15:43:57.866Z,0.82
2022-12-22T15:46:25.999Z,0.82
2022-12-22T15:48:53.174Z,0.85
2022-12-22T15:51:26.311Z,0.88
2022-12-22T15:53:54.759Z,0.87
2022-12-22T15:56:25.127Z,0.88
2022-12-22T15:58:52.766Z,0.87
2022-12-22T16:01:19.631Z,0.87
2022-12-22T16:03:46.554Z,0.88
2022-12-22T16:06:15.729Z,0.90
2022-12-22T16:08:53.688Z,0.88
2022-12-22T16:11:20.751Z,0.89
2022-12-22T16:13:49.243Z,0.93
2022-12-22T16:16:16.331Z,0.93
2022-12-22T16:18:43.195Z,0.92
2022-12-22T16:21:20.628Z,0.91
2022-12-22T16:23:49.248Z,0.90
2022-12-22T16:26:19.758Z,0.90
2022-12-22T16:28:47.112Z,0.88
2022-12-22T16:31:20.908Z,0.90
2022-12-22T16:33:48.383Z,0.91
2022-12-22T16:36:15.220Z,0.92
2022-12-22T16:38:41.999Z,0.89
2022-12-22T16:41:19.763Z,0.88
2022-12-22T16:46:31.249Z,0.85
2022-12-22T16:49:00.978Z,0.87
2022-12-22T16:51:32.354Z,0.87
2022-12-22T16:53:59.798Z,0.86
2022-12-22T16:56:29.058Z,0.85
2022-12-22T16:58:56.571Z,0.88
2022-12-22T17:01:38.940Z,0.82
2022-12-22T17:04:28.568Z,0.83
2022-12-22T17:06:57.193Z,0.80
2022-12-22T17:09:38.585Z,0.81
2022-12-22T17:12:05.686Z,0.76
2022-12-22T17:14:38.907Z,0.76
2022-12-22T17:17:05.811Z,0.79
2022-12-22T17:19:34.387Z,0.74
2022-12-22T17:22:01.410Z,0.75
2022-12-22T17:24:28.939Z,0.71
2022-12-22T17:27:03.668Z,0.72
2022-12-22T17:29:30.628Z,0.66
2022-12-22T17:31:57.430Z,0.65
2022-12-22T17:34:24.352Z,0.66
2022-12-22T17:36:51.570Z,0.60
2022-12-22T17:39:22.739Z,0.60
2022-12-22T17:41:56.345Z,0.63
2022-12-22T17:44:26.104Z,0.62
2022-12-22T17:46:53.531Z,0.56
2022-12-22T17:49:20.464Z,0.57
2022-12-22T17:51:47.463Z,0.58
2022-12-22T17:54:24.404Z,0.57
2022-12-22T17:56:54.151Z,0.56
2022-12-22T17:59:20.990Z,0.58
2022-12-22T18:01:47.907Z,0.56
2022-12-22T18:04:14.941Z,0.59
2022-12-22T18:06:42.846Z,0.56
2022-12-22T18:09:21.604Z,0.59
2022-12-22T18:11:49.287Z,0.65
2022-12-22T18:14:16.583Z,0.63
2022-12-22T18:16:43.431Z,0.66
2022-12-22T18:19:10.779Z,0.68
2022-12-22T18:21:37.668Z,0.67
2022-12-22T18:24:04.901Z,0.69
2022-12-22T18:26:31.791Z,0.69
2022-12-22T18:28:59.130Z,0.73
2022-12-22T18:31:26.288Z,0.75
2022-12-22T18:33:53.890Z,0.78
2022-12-22T18:36:32.550Z,0.81
2022-12-22T18:39:02.149Z,0.84
2022-12-22T18:41:33.561Z,0.88
2022-12-22T18:44:00.415Z,0.92
2022-12-22T18:46:27.263Z,0.98
2022-12-22T18:48:54.103Z,1.05
2022-12-22T18:51:24.291Z,1.11
2022-12-22T18:53:53.885Z,1.18
2022-12-22T18:56:22.180Z,1.36
2022-12-22T18:58:49.633Z,1.44
2022-12-22T19:01:27.266Z,2.16
2022-12-22T19:03:56.686Z,2.75
2022-12-22T19:06:24.171Z,3.27
2022-12-22T19:08:51.710Z,3.94
2022-12-22T19:11:23.649Z,4.88
2022-12-22T19:13:52.048Z,5.44
2022-12-22T19:16:24.926Z,5.69
2022-12-22T19:18:52.391Z,5.93
2022-12-22T19:21:20.087Z,6.19
2022-12-22T19:23:49.286Z,6.55
2022-12-22T19:26:21.417Z,6.77
2022-12-22T19:28:51.462Z,6.90
2022-12-22T19:31:25.728Z,7.17
2022-12-22T19:33:53.828Z,7.22
2022-12-22T19:36:23.330Z,7.27
2022-12-22T19:38:52.909Z,7.22
2022-12-22T19:41:43.082Z,7.41
2022-12-22T19:44:19.690Z,7.58
2022-12-22T19:46:48.070Z,7.70
2022-12-22T19:49:24.629Z,7.86
2022-12-22T19:51:51.622Z,7.84
2022-12-22T19:54:19.625Z,7.90
2022-12-22T19:56:52.392Z,8.11
2022-12-22T19:59:47.753Z,8.19
2022-12-22T20:02:20.730Z,8.36
2022-12-22T20:04:49.189Z,8.43
2022-12-22T20:07:18.742Z,8.49
2022-12-22T20:09:46.026Z,8.54
2022-12-22T20:12:19.281Z,8.54
2022-12-22T20:14:47.412Z,8.54
2022-12-22T20:17:15.808Z,8.66
2022-12-22T20:19:44.616Z,8.68
2022-12-22T20:22:21.095Z,8.60
2022-12-22T20:24:51.091Z,8.61
2022-12-22T20:27:38.252Z,8.67
2022-12-22T20:30:09.054Z,8.64
2022-12-22T20:32:36.112Z,8.62
2022-12-22T20:35:03.122Z,8.56
2022-12-22T20:37:30.524Z,8.46
2022-12-22T20:39:57.384Z,8.42
2022-12-22T20:42:25.865Z,8.42
2022-12-22T20:45:04.069Z,8.31
2022-12-22T20:47:36.118Z,8.31
2022-12-22T20:50:03.192Z,8.21
2022-12-22T20:52:31.151Z,8.08
2022-12-22T20:54:58.716Z,8.08
2022-12-22T20:57:26.924Z,7.95
2022-12-22T20:59:56.694Z,8.11
2022-12-22T21:02:26.490Z,8.07
2022-12-22T21:04:54.152Z,8.20
2022-12-22T21:07:21.043Z,8.33
2022-12-22T21:09:49.166Z,8.56
2022-12-22T21:12:16.458Z,8.68
2022-12-22T21:14:43.279Z,8.76
2022-12-22T21:17:18.266Z,8.66
2022-12-22T21:19:45.532Z,8.64
2022-12-22T21:22:12.760Z,8.48
2022-12-22T21:24:40.569Z,8.41
2022-12-22T21:27:15.554Z,8.50
2022-12-22T21:29:42.466Z,8.62
2022-12-22T21:32:14.190Z,8.59
2022-12-22T21:34:41.190Z,8.53
2022-12-22T21:37:17.479Z,8.47
2022-12-22T21:39:44.417Z,8.37
2022-12-22T21:42:16.271Z,8.26
2022-12-22T21:44:43.248Z,8.30
2022-12-22T21:47:18.885Z,8.23
2022-12-22T21:49:45.730Z,8.36
2022-12-22T21:52:12.585Z,8.38
2022-12-22T21:54:39.491Z,8.28
2022-12-22T21:57:06.277Z,8.31
2022-12-22T21:59:33.115Z,8.16
2022-12-22T22:02:00.177Z,8.06
2022-12-22T22:04:29.003Z,7.97
2022-12-22T22:06:55.963Z,7.88
2022-12-22T22:09:22.723Z,7.94
2022-12-22T22:11:49.520Z,7.96
2022-12-22T22:14:16.315Z,8.08
2022-12-22T22:16:43.040Z,8.05
2022-12-22T22:19:09.870Z,7.94
2022-12-22T22:21:36.669Z,7.93
2022-12-22T22:24:03.549Z,7.87
2022-12-22T22:26:30.331Z,7.72
2022-12-22T22:28:57.142Z,7.82
2022-12-22T22:31:23.920Z,7.81
2022-12-22T22:33:50.850Z,7.75
2022-12-22T22:36:17.601Z,7.79
2022-12-22T22:38:44.425Z,7.71
2022-12-22T22:41:11.214Z,7.69
2022-12-22T22:43:38.013Z,7.85
2022-12-22T22:46:05.752Z,7.79
2022-12-22T22:48:32.745Z,7.92
2022-12-22T22:50:59.461Z,7.93
2022-12-22T22:53:26.280Z,7.89
2022-12-22T22:55:53.004Z,7.94
2022-12-22T22:58:19.859Z,7.96
2022-12-22T23:00:46.837Z,7.87
2022-12-22T23:03:13.760Z,7.84
2022-12-22T23:05:40.607Z,7.83
2022-12-22T23:08:07.784Z,7.75
2022-12-22T23:10:41.134Z,7.61
2022-12-22T23:13:08.556Z,7.49
2022-12-22T23:15:35.398Z,7.46
2022-12-22T23:18:02.268Z,7.32
2022-12-22T23:20:29.082Z,7.17
2022-12-22T23:22:55.847Z,7.11
2022-12-22T23:25:22.611Z,7.00
2022-12-22T23:27:49.407Z,6.95
2022-12-22T23:30:17.091Z,7.00
2022-12-22T23:32:44.473Z,6.90
2022-12-22T23:35:11.174Z,6.85
2022-12-22T23:37:37.974Z,6.79
2022-12-22T23:40:42.007Z,6.71
2022-12-22T23:42:56.815Z,6.55
2022-12-22T23:45:24.112Z,6.54
2022-12-22T23:47:50.924Z,6.51
2022-12-22T23:50:17.795Z,6.45
2022-12-22T23:52:49.236Z,6.44
2022-12-22T23:55:16.437Z,6.38
2022-12-22T23:57:44.198Z,6.21
